Time;durP1;ratioP1;P1;durP2;ratioP2;P2;SDS_P1;SDS_P2;PMS_P1;PMS_P2;Temp;Humidity;BMP_temperature;BMP_pressure;BME280_temperature;BME280_humidity;BME280_pressure;Samples;Min_cycle;Max_cycle;Signal;HPM_P1;HPM_P2
2021/04/20 00:01:11;;;;;;;24.87;10.57;;;9.80;99.90;;;;;;5116353;28;20168;-67
2021/04/20 00:03:36;;;;;;;16.17;10.07;;;9.80;99.90;;;;;;5116293;28;20575;-66
2021/04/20 00:06:03;;;;;;;16.60;9.00;;;9.80;99.90;;;;;;5116343;28;20400;-68
2021/04/20 00:08:29;;;;;;;12.55;9.52;;;9.80;99.90;;;;;;5116152;28;20250;-68
2021/04/20 00:10:54;;;;;;;16.27;8.73;;;9.80;99.90;;;;;;5116111;28;20251;-67
2021/04/20 00:13:20;;;;;;;17.07;9.93;;;9.80;99.90;;;;;;5114802;28;20200;-66
2021/04/20 00:15:46;;;;;;;16.80;12.53;;;9.80;99.90;;;;;;5116003;28;20234;-71
2021/04/20 00:18:11;;;;;;;22.10;11.23;;;9.70;99.90;;;;;;5115929;28;20192;-66
2021/04/20 00:20:37;;;;;;;17.03;11.13;;;9.80;99.90;;;;;;5115955;28;20242;-68
2021/04/20 00:23:08;;;;;;;19.20;9.88;;;9.80;99.90;;;;;;5115480;27;20184;-69
2021/04/20 00:25:34;;;;;;;17.52;10.63;;;9.80;99.90;;;;;;5114498;28;20176;-70
2021/04/20 00:27:59;;;;;;;17.02;9.98;;;9.80;99.90;;;;;;5115632;28;20719;-67
2021/04/20 00:30:25;;;;;;;15.10;9.90;;;9.70;99.90;;;;;;5115803;28;20289;-66
2021/04/20 00:32:51;;;;;;;20.13;10.87;;;9.70;99.90;;;;;;5115598;28;20196;-69
2021/04/20 00:35:17;;;;;;;15.90;9.98;;;9.70;99.90;;;;;;5114592;28;20415;-69
2021/04/20 00:37:43;;;;;;;14.00;9.83;;;9.70;99.90;;;;;;5115596;28;20551;-66
2021/04/20 00:40:11;;;;;;;13.37;9.93;;;9.70;99.90;;;;;;5114535;28;20645;-66
2021/04/20 00:42:47;;;;;;;18.20;9.38;;;9.70;99.90;;;;;;5115476;28;20396;-68
2021/04/20 00:45:15;;;;;;;18.20;11.20;;;9.60;99.90;;;;;;5114496;28;20179;-66
2021/04/20 00:47:40;;;;;;;15.68;8.70;;;9.60;99.90;;;;;;5115221;28;20564;-69
2021/04/20 00:50:08;;;;;;;18.53;11.30;;;9.70;99.90;;;;;;5115891;28;20233;-68
2021/04/20 00:52:33;;;;;;;16.33;11.52;;;9.60;99.90;;;;;;5114027;28;20761;-68
2021/04/20 00:54:59;;;;;;;18.83;10.23;;;9.70;99.90;;;;;;5115697;28;20187;-68
2021/04/20 00:57:25;;;;;;;13.50;9.93;;;9.60;99.90;;;;;;5115159;28;20652;-67
2021/04/20 00:59:50;;;;;;;16.60;10.90;;;9.60;99.90;;;;;;5113990;28;20184;-68
2021/04/20 01:02:16;;;;;;;20.93;12.47;;;9.60;99.90;;;;;;5115050;28;20167;-69
2021/04/20 01:04:41;;;;;;;14.63;11.57;;;9.60;99.90;;;;;;5113835;28;20707;-70
2021/04/20 01:07:08;;;;;;;17.50;10.87;;;9.50;99.90;;;;;;5115168;28;20567;-67
2021/04/20 01:09:34;;;;;;;18.63;10.45;;;9.50;99.90;;;;;;5115108;28;20227;-68
2021/04/20 01:11:59;;;;;;;15.30;10.45;;;9.50;99.90;;;;;;5115006;28;20594;-67
2021/04/20 01:14:25;;;;;;;15.47;12.07;;;9.50;99.90;;;;;;5115116;28;20202;-66
2021/04/20 01:16:50;;;;;;;17.70;10.87;;;9.50;99.90;;;;;;5114896;28;20176;-67
2021/04/20 01:19:19;;;;;;;11.07;8.83;;;9.50;99.90;;;;;;5115056;28;20645;-68
2021/04/20 01:21:47;;;;;;;18.05;12.20;;;9.50;99.90;;;;;;5114718;28;20195;-69
2021/04/20 01:24:13;;;;;;;19.17;13.98;;;9.40;99.90;;;;;;5114953;28;20196;-68
2021/04/20 01:26:44;;;;;;;14.33;11.23;;;9.50;99.90;;;;;;5113418;28;20178;-68
2021/04/20 01:29:11;;;;;;;19.10;10.75;;;9.40;99.90;;;;;;5114467;28;20696;-68
2021/04/20 01:31:39;;;;;;;18.08;12.23;;;9.40;99.90;;;;;;5113320;28;20171;-66
2021/04/20 01:34:06;;;;;;;21.15;11.65;;;9.40;99.90;;;;;;5114587;28;20199;-66
2021/04/20 01:36:31;;;;;;;16.92;10.82;;;9.30;99.90;;;;;;5112548;28;20292;-67
2021/04/20 01:38:58;;;;;;;15.50;11.37;;;9.30;99.90;;;;;;5114544;28;20203;-68
2021/04/20 01:41:25;;;;;;;15.07;10.82;;;9.30;99.90;;;;;;5113197;28;20164;-68
2021/04/20 01:43:53;;;;;;;22.10;12.23;;;9.30;99.90;;;;;;5114491;28;20199;-68
2021/04/20 01:46:20;;;;;;;14.20;10.00;;;9.20;99.90;;;;;;5114466;28;20254;-68
2021/04/20 01:48:47;;;;;;;14.35;9.65;;;9.20;99.90;;;;;;5112935;28;20589;-66
2021/04/20 01:51:14;;;;;;;19.45;10.18;;;9.30;99.90;;;;;;5112971;28;20257;-68
2021/04/20 01:53:39;;;;;;;12.98;9.65;;;9.30;99.90;;;;;;5114384;28;20825;-65
2021/04/20 01:56:07;;;;;;;17.90;11.67;;;9.20;99.90;;;;;;5114364;28;20649;-67
2021/04/20 01:58:34;;;;;;;14.95;10.35;;;9.30;99.90;;;;;;5112802;28;20294;-66
2021/04/20 02:01:04;;;;;;;18.50;10.68;;;9.30;99.90;;;;;;5114263;28;20252;-66
2021/04/20 02:03:31;;;;;;;18.10;11.10;;;9.30;99.90;;;;;;5114192;28;20195;-67
2021/04/20 02:05:58;;;;;;;14.00;8.30;;;9.30;99.90;;;;;;5114234;28;20210;-66
2021/04/20 02:08:24;;;;;;;13.73;10.98;;;9.30;99.90;;;;;;5112752;28;20243;-66
2021/04/20 02:10:51;;;;;;;18.52;12.90;;;9.20;99.90;;;;;;5114049;28;20250;-66
2021/04/20 02:13:19;;;;;;;13.27;11.07;;;9.20;99.90;;;;;;5114134;28;20183;-66
2021/04/20 02:15:45;;;;;;;11.88;10.57;;;9.30;99.90;;;;;;5113945;28;20172;-68
2021/04/20 02:18:11;;;;;;;18.20;10.17;;;9.40;99.90;;;;;;5114083;28;20191;-66
2021/04/20 02:20:38;;;;;;;14.30;9.02;;;9.30;99.90;;;;;;5113946;28;20168;-66
2021/04/20 02:23:05;;;;;;;16.88;10.60;;;9.30;99.90;;;;;;5113912;28;20188;-66
2021/04/20 02:25:31;;;;;;;14.48;9.45;;;9.30;99.90;;;;;;5114003;28;20665;-66
2021/04/20 02:27:57;;;;;;;14.77;10.70;;;9.30;99.90;;;;;;5112445;28;20263;-68
2021/04/20 02:30:24;;;;;;;18.17;11.88;;;9.30;99.90;;;;;;5114453;28;20176;-66
2021/04/20 02:32:50;;;;;;;15.55;11.27;;;9.20;99.90;;;;;;5113869;28;20681;-68
2021/04/20 02:35:17;;;;;;;16.77;9.40;;;9.20;99.90;;;;;;5112928;28;20176;-69
2021/04/20 02:37:44;;;;;;;15.25;10.65;;;9.20;99.90;;;;;;5113740;28;20192;-66
2021/04/20 02:40:17;;;;;;;14.98;10.25;;;9.20;99.90;;;;;;5114404;28;20184;-66
2021/04/20 02:42:43;;;;;;;16.42;11.43;;;9.20;99.90;;;;;;5112523;28;20699;-69
2021/04/20 02:45:09;;;;;;;17.20;10.60;;;9.20;99.90;;;;;;5114305;28;20208;-68
2021/04/20 02:47:36;;;;;;;16.05;11.32;;;9.20;99.90;;;;;;5116329;28;20449;-65
2021/04/20 02:50:10;;;;;;;15.95;9.05;;;9.10;99.90;;;;;;5117665;28;20219;-69
2021/04/20 02:52:37;;;;;;;15.52;10.32;;;9.10;99.90;;;;;;5116355;28;20227;-68
2021/04/20 02:55:05;;;;;;;18.40;11.10;;;9.10;99.90;;;;;;5118217;28;20553;-69
2021/04/20 02:57:36;;;;;;;19.30;12.10;;;9.10;99.90;;;;;;5117582;28;20183;-67
2021/04/20 03:00:06;;;;;;;16.00;11.38;;;9.00;99.90;;;;;;5117980;28;20183;-67
2021/04/20 03:02:34;;;;;;;14.15;10.20;;;9.00;99.90;;;;;;5117530;28;20197;-66
2021/04/20 03:05:00;;;;;;;13.85;10.32;;;9.00;99.90;;;;;;5117884;28;20183;-66
2021/04/20 03:07:26;;;;;;;9.67;8.17;;;9.00;99.90;;;;;;5117391;28;20180;-66
2021/04/20 03:09:52;;;;;;;14.10;9.43;;;8.90;99.90;;;;;;5116151;28;20479;-68
2021/04/20 03:12:20;;;;;;;15.02;11.40;;;8.90;99.90;;;;;;5116081;28;20495;-66
2021/04/20 03:14:46;;;;;;;18.38;11.02;;;9.00;99.90;;;;;;5117687;28;20179;-66
2021/04/20 03:17:12;;;;;;;15.97;9.70;;;8.90;99.90;;;;;;5115960;28;20225;-68
2021/04/20 03:19:37;;;;;;;16.70;10.33;;;9.00;99.90;;;;;;5116915;28;20440;-66
2021/04/20 03:22:05;;;;;;;12.20;9.23;;;9.00;99.90;;;;;;5117131;28;20197;-68
2021/04/20 03:24:33;;;;;;;14.45;10.00;;;8.90;99.90;;;;;;5115822;28;20564;-66
2021/04/20 03:26:59;;;;;;;9.32;7.60;;;8.90;99.90;;;;;;5115789;28;20172;-66
2021/04/20 03:29:26;;;;;;;18.02;9.95;;;8.90;99.90;;;;;;5117204;27;20582;-66
2021/04/20 03:31:53;;;;;;;13.93;8.57;;;8.90;99.90;;;;;;5115597;28;20214;-66
2021/04/20 03:34:25;;;;;;;13.43;9.35;;;8.80;99.90;;;;;;5117084;28;20669;-66
2021/04/20 03:37:25;;;;;;;12.55;10.15;;;8.80;99.90;;;;;;5116864;28;20169;-66
2021/04/20 03:39:53;;;;;;;12.75;9.13;;;8.80;99.90;;;;;;5102086;28;20203;-66
2021/04/20 03:42:23;;;;;;;14.98;9.02;;;8.80;99.90;;;;;;5115475;28;20221;-66
2021/04/20 03:44:54;;;;;;;15.32;8.77;;;8.80;99.90;;;;;;5117247;28;20171;-68
2021/04/20 03:47:26;;;;;;;14.75;9.50;;;9.00;99.90;;;;;;5116576;28;20168;-68
2021/04/20 03:49:56;;;;;;;13.15;9.05;;;9.00;99.90;;;;;;5117021;28;20215;-66
2021/04/20 03:52:42;;;;;;;20.88;9.75;;;9.00;99.90;;;;;;5116476;28;20276;-65
2021/04/20 03:55:10;;;;;;;11.38;7.72;;;9.00;99.90;;;;;;5117001;28;20317;-69
2021/04/20 03:57:38;;;;;;;13.35;9.00;;;9.00;99.90;;;;;;5116108;28;20171;-66
2021/04/20 04:00:07;;;;;;;13.10;8.80;;;9.00;99.90;;;;;;5116433;28;20312;-68
2021/04/20 04:02:36;;;;;;;12.52;8.20;;;9.00;99.90;;;;;;5113920;28;20176;-66
2021/04/20 04:05:04;;;;;;;10.27;8.02;;;8.90;99.90;;;;;;5098098;28;20186;-69
2021/04/20 04:07:31;;;;;;;9.80;8.52;;;9.00;99.90;;;;;;5116153;28;20634;-68
2021/04/20 04:09:57;;;;;;;8.98;7.70;;;9.00;99.90;;;;;;5116495;28;20571;-65
2021/04/20 04:12:25;;;;;;;17.25;9.68;;;9.00;99.90;;;;;;5116164;28;20622;-68
2021/04/20 04:14:52;;;;;;;14.70;9.32;;;8.90;99.90;;;;;;5116142;27;20215;-68
2021/04/20 04:17:20;;;;;;;20.45;10.63;;;8.80;99.90;;;;;;5126948;27;20179;-66
2021/04/20 04:19:48;;;;;;;14.68;9.25;;;8.70;99.90;;;;;;5130870;27;20222;-67
2021/04/20 04:22:19;;;;;;;16.67;11.30;;;8.60;99.90;;;;;;5134505;27;20258;-69
2021/04/20 04:24:49;;;;;;;16.42;10.27;;;8.70;99.90;;;;;;5097641;28;20176;-66
2021/04/20 04:27:18;;;;;;;17.42;13.52;;;8.60;99.90;;;;;;5115928;28;20172;-69
2021/04/20 04:29:47;;;;;;;16.65;11.07;;;8.50;99.90;;;;;;5130614;27;20579;-69
2021/04/20 04:32:16;;;;;;;13.93;7.90;;;8.50;99.90;;;;;;5124326;27;20292;-66
2021/04/20 04:34:43;;;;;;;13.65;9.50;;;8.70;99.90;;;;;;5115905;28;20214;-68
2021/04/20 04:37:09;;;;;;;22.45;9.10;;;9.00;99.90;;;;;;5115686;28;20687;-66
2021/04/20 04:39:35;;;;;;;17.17;11.55;;;9.20;99.90;;;;;;5115317;28;20243;-66
2021/04/20 04:42:01;;;;;;;16.27;9.10;;;9.10;99.90;;;;;;5097283;28;20215;-67
2021/04/20 04:44:26;;;;;;;15.38;8.65;;;9.20;99.90;;;;;;5115687;28;20691;-66
2021/04/20 04:46:52;;;;;;;15.80;9.00;;;9.10;99.90;;;;;;5115333;28;20176;-67
2021/04/20 04:49:19;;;;;;;14.83;7.90;;;9.20;99.90;;;;;;5115156;28;20480;-68
2021/04/20 04:51:48;;;;;;;14.60;10.25;;;9.20;99.90;;;;;;5118160;27;20557;-66
2021/04/20 04:54:15;;;;;;;16.20;11.10;;;9.20;99.90;;;;;;5117678;27;20275;-67
2021/04/20 04:56:42;;;;;;;15.40;9.85;;;9.20;99.90;;;;;;5115087;27;20171;-69
2021/04/20 04:59:09;;;;;;;14.13;11.00;;;9.10;99.90;;;;;;5125402;27;20208;-67
2021/04/20 05:01:37;;;;;;;16.27;9.77;;;9.20;99.90;;;;;;5132487;27;20216;-67
2021/04/20 05:04:08;;;;;;;18.67;10.25;;;8.90;99.90;;;;;;5135157;27;20230;-69
2021/04/20 05:06:38;;;;;;;15.18;10.10;;;8.70;99.90;;;;;;5134520;27;20569;-69
2021/04/20 05:09:08;;;;;;;17.95;9.07;;;8.70;99.90;;;;;;5134472;27;20700;-68
2021/04/20 05:11:36;;;;;;;15.63;9.48;;;8.70;99.90;;;;;;5134405;27;20613;-69
2021/04/20 05:14:02;;;;;;;18.00;11.52;;;8.70;99.90;;;;;;5120200;27;20252;-68
2021/04/20 05:16:28;;;;;;;14.30;9.60;;;8.70;99.90;;;;;;5113933;28;20630;-67
2021/04/20 05:18:54;;;;;;;15.23;10.65;;;8.60;99.90;;;;;;5115650;27;20207;-66
2021/04/20 05:21:22;;;;;;;15.23;10.40;;;8.70;99.90;;;;;;5123291;27;20531;-68
2021/04/20 05:23:48;;;;;;;19.23;13.30;;;8.80;99.90;;;;;;5134745;27;20286;-66
2021/04/20 05:26:13;;;;;;;18.70;11.90;;;8.90;99.90;;;;;;5132097;27;20254;-69
2021/04/20 05:28:39;;;;;;;14.97;9.63;;;8.90;99.90;;;;;;5108371;27;20809;-65
2021/04/20 05:31:05;;;;;;;20.03;10.90;;;9.00;99.90;;;;;;5124316;27;20648;-70
2021/04/20 05:33:30;;;;;;;16.37;11.57;;;9.00;99.90;;;;;;5111353;28;20263;-67
2021/04/20 05:36:05;;;;;;;18.30;10.80;;;9.10;99.90;;;;;;5113478;28;20164;-69
2021/04/20 05:38:30;;;;;;;18.05;10.25;;;9.20;99.90;;;;;;5098471;28;20206;-66
2021/04/20 05:40:56;;;;;;;16.87;9.73;;;9.20;99.90;;;;;;5098666;28;20183;-67
2021/04/20 05:43:21;;;;;;;12.00;9.10;;;9.30;99.90;;;;;;5113584;27;20826;-69
2021/04/20 05:45:47;;;;;;;19.63;10.23;;;9.40;99.90;;;;;;5112646;28;20207;-68
2021/04/20 05:48:13;;;;;;;15.70;9.63;;;9.60;99.90;;;;;;5121118;27;20707;-66
2021/04/20 05:50:39;;;;;;;15.00;10.63;;;9.60;99.90;;;;;;5110676;28;20186;-66
2021/04/20 05:53:04;;;;;;;14.95;9.15;;;9.70;99.90;;;;;;5128746;27;20269;-68
2021/04/20 05:55:31;;;;;;;15.98;11.45;;;9.70;99.90;;;;;;5116750;27;20238;-69
2021/04/20 05:57:56;;;;;;;18.77;12.03;;;9.70;99.90;;;;;;5127748;27;20211;-68
2021/04/20 06:00:24;;;;;;;14.73;8.60;;;9.80;99.90;;;;;;5126497;27;20563;-68
2021/04/20 06:02:53;;;;;;;18.88;10.55;;;9.80;99.90;;;;;;5114352;28;20238;-66
2021/04/20 06:05:24;;;;;;;13.02;10.20;;;9.90;99.90;;;;;;5120667;28;20210;-66
2021/04/20 06:07:53;;;;;;;15.90;10.15;;;10.00;99.90;;;;;;5122409;27;20711;-67
2021/04/20 06:10:19;;;;;;;16.05;9.70;;;10.10;99.90;;;;;;5114495;28;20195;-66
2021/04/20 06:12:46;;;;;;;14.15;8.98;;;10.10;99.90;;;;;;5128083;28;20202;-66
2021/04/20 06:15:15;;;;;;;15.55;10.20;;;10.30;99.90;;;;;;5114800;28;20179;-66
2021/04/20 06:17:41;;;;;;;18.90;10.55;;;10.30;99.90;;;;;;5125373;28;20314;-69
2021/04/20 06:20:13;;;;;;;18.63;10.63;;;10.50;99.90;;;;;;5114363;28;20212;-67
2021/04/20 06:22:45;;;;;;;25.90;15.05;;;10.40;99.90;;;;;;5123439;27;20507;-68
2021/04/20 06:25:16;;;;;;;14.77;9.60;;;10.40;99.90;;;;;;5118247;27;20535;-66
2021/04/20 06:27:42;;;;;;;15.23;10.18;;;10.50;99.90;;;;;;5120564;27;20280;-66
2021/04/20 06:30:10;;;;;;;15.55;10.18;;;10.60;99.90;;;;;;5120296;27;20210;-65
2021/04/20 06:32:41;;;;;;;18.42;11.10;;;10.70;99.90;;;;;;5120937;27;20243;-68
2021/04/20 06:35:12;;;;;;;18.20;11.45;;;10.80;99.90;;;;;;5126401;27;20186;-69
2021/04/20 06:37:38;;;;;;;14.25;10.18;;;10.80;99.90;;;;;;5105564;27;20249;-67
2021/04/20 06:40:23;;;;;;;17.15;10.52;;;10.80;99.90;;;;;;5127204;27;20236;-69
2021/04/20 06:42:52;;;;;;;15.57;9.60;;;11.00;99.90;;;;;;5116985;27;20200;-68
2021/04/20 06:45:46;;;;;;;15.70;9.82;;;11.00;99.90;;;;;;5119886;27;20172;-65
2021/04/20 06:48:38;;;;;;;18.40;9.43;;;11.00;99.90;;;;;;5122512;27;20207;-66
2021/04/20 06:51:09;;;;;;;12.20;8.27;;;11.20;99.90;;;;;;5124949;27;20182;-70
2021/04/20 06:53:42;;;;;;;19.35;13.75;;;11.20;99.90;;;;;;5119655;27;20200;-66
2021/04/20 06:56:36;;;;;;;16.63;10.70;;;11.30;99.90;;;;;;5104742;27;20195;-69
2021/04/20 06:59:15;;;;;;;16.70;9.25;;;11.40;99.90;;;;;;5129731;27;20294;-69
2021/04/20 07:01:48;;;;;;;17.40;9.85;;;11.40;99.90;;;;;;5126542;27;20670;-69
2021/04/20 07:04:37;;;;;;;19.50;11.52;;;11.50;99.90;;;;;;5113018;27;20230;-66
2021/04/20 07:07:27;;;;;;;14.20;9.52;;;11.60;99.90;;;;;;5105178;28;20661;-69
2021/04/20 07:10:12;;;;;;;22.20;12.02;;;11.60;99.90;;;;;;5117744;27;20687;-68
2021/04/20 07:12:39;;;;;;;20.25;12.55;;;11.80;99.90;;;;;;5128308;27;20187;-69
2021/04/20 07:15:07;;;;;;;30.27;15.13;;;11.80;99.90;;;;;;5105031;28;20232;-66
2021/04/20 07:17:36;;;;;;;19.75;11.13;;;11.90;99.90;;;;;;5120170;27;20233;-65
2021/04/20 07:20:36;;;;;;;22.98;13.18;;;11.90;99.90;;;;;;5126327;27;20275;-69
2021/04/20 07:23:13;;;;;;;20.10;13.05;;;12.10;99.90;;;;;;5104649;27;20716;-69
2021/04/20 07:26:05;;;;;;;25.95;14.55;;;12.10;99.90;;;;;;5118569;27;20190;-68
2021/04/20 07:28:47;;;;;;;20.40;13.13;;;12.20;99.90;;;;;;5119129;27;20226;-68
2021/04/20 07:31:29;;;;;;;22.87;13.20;;;12.40;99.90;;;;;;5120795;27;20967;-66
2021/04/20 07:34:35;;;;;;;26.67;14.70;;;12.40;99.90;;;;;;5122860;27;20976;-66
2021/04/20 07:37:14;;;;;;;26.73;13.70;;;12.60;99.90;;;;;;5121150;27;20481;-68
2021/04/20 07:39:48;;;;;;;19.17;10.10;;;12.90;99.90;;;;;;5110606;27;20546;-68
2021/04/20 07:42:42;;;;;;;15.40;8.20;;;13.00;99.90;;;;;;5120990;27;20431;-69
2021/04/20 07:45:16;;;;;;;17.23;9.40;;;13.30;99.90;;;;;;5106753;27;20477;-69
2021/04/20 07:47:54;;;;;;;21.17;11.03;;;13.70;99.90;;;;;;5098765;27;20443;-69
2021/04/20 07:50:29;;;;;;;17.30;9.27;;;13.70;99.90;;;;;;5107442;27;20444;-70
2021/04/20 07:53:03;;;;;;;15.30;9.97;;;13.50;99.90;;;;;;5122480;27;20874;-68
2021/04/20 07:56:02;;;;;;;19.63;11.60;;;13.60;99.90;;;;;;5117733;27;20883;-68
2021/04/20 07:58:33;;;;;;;15.77;9.20;;;13.50;99.90;;;;;;5069384;27;20572;-69
2021/04/20 08:01:29;;;;;;;17.53;11.30;;;13.70;99.90;;;;;;5119224;27;20926;-69
2021/04/20 08:04:10;;;;;;;14.63;7.23;;;13.40;99.90;;;;;;5121176;27;20446;-68
2021/04/20 08:06:38;;;;;;;13.93;9.50;;;13.70;99.90;;;;;;5121649;27;20454;-65
2021/04/20 08:09:08;;;;;;;12.77;8.47;;;13.80;99.90;;;;;;5123476;27;20479;-65
2021/04/20 08:11:44;;;;;;;12.10;8.33;;;13.70;99.90;;;;;;5121328;27;20420;-65
2021/04/20 08:14:40;;;;;;;15.37;8.63;;;13.50;99.90;;;;;;5118328;27;20498;-69
2021/04/20 08:17:13;;;;;;;13.03;8.17;;;13.40;99.90;;;;;;5121026;27;20489;-69
2021/04/20 08:19:46;;;;;;;13.33;8.37;;;13.30;99.90;;;;;;5121248;27;20458;-65
2021/04/20 08:22:15;;;;;;;18.07;9.53;;;13.70;99.90;;;;;;5123960;27;20463;-65
2021/04/20 08:24:43;;;;;;;11.27;8.03;;;14.30;99.90;;;;;;5100294;27;20873;-70
2021/04/20 08:27:32;;;;;;;11.03;7.30;;;14.60;99.90;;;;;;5109426;28;20933;-69
2021/04/20 08:30:09;;;;;;;7.50;5.43;;;13.90;99.90;;;;;;5115926;27;20509;-67
2021/04/20 08:32:37;;;;;;;12.17;8.00;;;14.00;99.90;;;;;;5107505;27;20435;-70
2021/04/20 08:35:27;;;;;;;11.60;7.17;;;14.10;99.90;;;;;;5117698;27;20466;-70
2021/04/20 08:37:54;;;;;;;9.30;6.90;;;14.60;99.90;;;;;;5124544;27;20473;-70
2021/04/20 08:40:40;;;;;;;8.20;7.00;;;14.50;99.90;;;;;;5118002;27;20432;-65
2021/04/20 08:43:09;;;;;;;9.63;6.23;;;14.70;99.90;;;;;;5118374;27;20490;-67
2021/04/20 08:46:15;;;;;;;10.63;6.80;;;14.70;99.90;;;;;;5120805;27;20495;-69
2021/04/20 08:48:50;;;;;;;7.57;6.10;;;14.70;99.90;;;;;;5082438;27;20478;-66
2021/04/20 08:51:37;;;;;;;9.70;5.80;;;14.70;99.90;;;;;;5120578;27;20481;-70
2021/04/20 08:54:29;;;;;;;8.67;6.40;;;14.50;99.90;;;;;;5120214;27;20459;-70
2021/04/20 08:57:12;;;;;;;9.00;6.60;;;14.40;99.90;;;;;;5102689;27;20423;-65
2021/04/20 09:00:08;;;;;;;6.17;4.93;;;14.50;99.90;;;;;;5120846;27;20463;-70
2021/04/20 09:02:53;;;;;;;8.10;5.70;;;15.00;99.90;;;;;;5099155;27;20509;-69
2021/04/20 09:05:24;;;;;;;6.50;5.03;;;15.10;99.90;;;;;;5122665;27;20501;-65
2021/04/20 09:08:16;;;;;;;10.03;6.83;;;15.10;99.90;;;;;;5100138;27;20892;-65
2021/04/20 09:11:05;;;;;;;6.77;5.03;;;15.00;99.90;;;;;;5110779;27;20495;-70
2021/04/20 09:13:51;;;;;;;8.10;5.60;;;14.80;99.90;;;;;;5110094;27;20451;-70
2021/04/20 09:16:24;;;;;;;7.93;5.63;;;14.60;99.90;;;;;;5061678;27;20786;-65
2021/04/20 09:18:52;;;;;;;6.67;5.83;;;14.60;99.90;;;;;;5118114;27;20534;-70
2021/04/20 09:21:39;;;;;;;9.83;5.70;;;14.70;99.90;;;;;;5117833;27;20455;-69
2021/04/20 09:24:18;;;;;;;6.03;4.60;;;14.70;99.90;;;;;;5116618;27;21210;-68
2021/04/20 09:27:10;;;;;;;6.80;5.23;;;15.10;99.90;;;;;;5117540;27;20859;-69
2021/04/20 09:29:40;;;;;;;5.67;5.07;;;15.10;99.90;;;;;;5089141;27;20482;-72
2021/04/20 09:32:21;;;;;;;6.53;5.53;;;15.50;99.90;;;;;;5099734;27;20443;-69
2021/04/20 09:34:49;;;;;;;6.77;5.80;;;15.70;99.90;;;;;;5112961;27;20468;-65
2021/04/20 09:37:15;;;;;;;6.50;5.70;;;15.70;99.90;;;;;;5112702;27;20445;-65
2021/04/20 09:39:45;;;;;;;7.23;5.00;;;15.70;99.90;;;;;;5100596;27;20968;-69
2021/04/20 09:42:12;;;;;;;6.03;5.07;;;15.60;99.90;;;;;;5115700;27;20435;-65
2021/04/20 09:45:07;;;;;;;8.40;5.80;;;15.70;99.90;;;;;;5103432;28;20451;-65
2021/04/20 09:48:12;;;;;;;5.63;4.70;;;15.70;99.90;;;;;;5099277;28;20524;-68
2021/04/20 09:51:04;;;;;;;7.07;5.30;;;15.80;99.90;;;;;;5116013;27;20447;-68
2021/04/20 09:54:04;;;;;;;5.70;5.03;;;16.10;99.90;;;;;;5085574;28;20477;-65
2021/04/20 09:56:43;;;;;;;7.00;6.30;;;16.10;99.90;;;;;;5080520;28;20445;-67
2021/04/20 09:59:25;;;;;;;8.03;6.20;;;16.20;99.90;;;;;;5101969;28;20444;-65
2021/04/20 10:02:32;;;;;;;7.50;6.60;;;16.10;99.90;;;;;;5082020;28;20425;-65
2021/04/20 10:05:21;;;;;;;7.50;5.40;;;15.90;99.90;;;;;;5081374;28;20857;-65
2021/04/20 10:08:24;;;;;;;9.07;5.60;;;15.70;99.90;;;;;;5076535;28;20459;-67
2021/04/20 10:11:17;;;;;;;8.47;6.20;;;15.80;99.90;;;;;;5082361;28;20441;-66
2021/04/20 10:14:00;;;;;;;9.40;6.90;;;15.90;99.90;;;;;;5087789;28;20836;-69
2021/04/20 10:16:35;;;;;;;9.90;6.77;;;15.70;99.90;;;;;;5087958;28;20444;-66
2021/04/20 10:19:32;;;;;;;9.43;7.13;;;15.60;99.90;;;;;;5087049;28;20449;-65
2021/04/20 10:22:18;;;;;;;7.47;5.90;;;15.60;99.90;;;;;;5082637;28;20466;-69
2021/04/20 10:24:56;;;;;;;9.63;5.70;;;15.70;99.90;;;;;;5087537;28;20842;-65
2021/04/20 10:27:26;;;;;;;9.13;6.60;;;15.80;99.90;;;;;;5088581;28;20445;-64
2021/04/20 10:30:12;;;;;;;4.03;3.23;;;15.70;99.90;;;;;;5088801;28;20465;-64
2021/04/20 10:32:40;;;;;;;4.37;3.80;;;15.00;99.90;;;;;;5090056;28;20453;-68
2021/04/20 10:35:16;;;;;;;7.03;5.10;;;15.10;99.90;;;;;;5081488;28;20567;-69
2021/04/20 10:37:50;;;;;;;6.47;5.77;;;15.00;99.90;;;;;;5091252;28;20806;-68
2021/04/20 10:40:22;;;;;;;9.10;6.20;;;14.60;99.90;;;;;;5104435;28;20442;-65
2021/04/20 10:42:49;;;;;;;9.37;6.70;;;14.50;99.90;;;;;;5083780;28;20450;-64
2021/04/20 10:45:17;;;;;;;7.97;6.13;;;14.60;99.90;;;;;;5085834;28;20421;-68
2021/04/20 10:47:49;;;;;;;6.70;5.17;;;14.50;99.90;;;;;;5081613;28;20449;-65
2021/04/20 10:50:22;;;;;;;6.47;4.33;;;14.40;99.90;;;;;;5081790;28;21008;-65
2021/04/20 10:52:56;;;;;;;3.83;3.40;;;14.30;99.90;;;;;;5077017;28;20828;-65
2021/04/20 10:55:27;;;;;;;6.10;3.80;;;14.00;99.90;;;;;;5082955;28;20468;-70
2021/04/20 10:57:54;;;;;;;3.90;2.77;;;13.80;99.90;;;;;;5069127;28;20445;-64
2021/04/20 11:00:21;;;;;;;3.10;2.80;;;13.70;99.90;;;;;;5081019;28;20474;-69
2021/04/20 11:02:50;;;;;;;2.30;2.00;;;13.70;99.90;;;;;;5073771;28;20445;-70
2021/04/20 11:05:22;;;;;;;1.57;1.47;;;13.80;99.90;;;;;;5076664;28;20433;-67
2021/04/20 11:07:49;;;;;;;4.40;3.00;;;14.00;99.90;;;;;;5073499;28;20442;-67
2021/04/20 11:10:16;;;;;;;2.93;1.93;;;14.30;99.90;;;;;;5080308;28;20484;-67
2021/04/20 11:12:47;;;;;;;1.90;1.73;;;14.20;99.90;;;;;;5081362;28;20991;-66
2021/04/20 11:15:21;;;;;;;1.73;1.63;;;14.40;99.90;;;;;;5083725;28;20429;-68
2021/04/20 11:17:56;;;;;;;2.97;2.10;;;14.60;99.90;;;;;;5087640;28;20437;-66
2021/04/20 11:20:30;;;;;;;2.50;1.73;;;14.90;99.90;;;;;;5081993;28;20433;-71
2021/04/20 11:23:08;;;;;;;1.93;1.77;;;14.70;99.90;;;;;;5081873;28;20502;-66
2021/04/20 11:25:45;;;;;;;2.80;2.47;;;14.40;99.90;;;;;;5086400;28;20483;-69
2021/04/20 11:28:29;;;;;;;1.57;1.40;;;14.70;99.90;;;;;;5082896;28;20444;-67
2021/04/20 11:30:57;;;;;;;2.30;1.87;;;15.10;99.90;;;;;;5079452;28;20448;-67
2021/04/20 11:33:37;;;;;;;2.23;2.03;;;15.40;99.90;;;;;;5077274;28;20553;-70
2021/04/20 11:36:08;;;;;;;2.07;1.83;;;15.60;99.90;;;;;;5082570;28;20418;-69
2021/04/20 11:38:56;;;;;;;1.53;1.30;;;15.50;99.90;;;;;;5082707;28;20453;-70
2021/04/20 11:41:28;;;;;;;1.93;1.70;;;15.70;99.90;;;;;;5084076;28;20799;-66
2021/04/20 11:44:03;;;;;;;2.63;1.90;;;15.60;99.90;;;;;;5080056;28;20468;-69
2021/04/20 11:46:32;;;;;;;2.30;2.10;;;15.40;99.90;;;;;;5075603;28;20429;-71
2021/04/20 11:49:26;;;;;;;3.13;2.77;;;15.30;99.90;;;;;;5080058;28;20480;-69
2021/04/20 11:51:53;;;;;;;4.57;3.27;;;15.40;99.90;;;;;;5092674;27;20482;-70
2021/04/20 11:54:25;;;;;;;2.37;2.13;;;15.40;99.90;;;;;;5119540;27;20456;-66
2021/04/20 11:56:57;;;;;;;4.50;3.50;;;15.60;99.90;;;;;;5124310;27;20794;-71
2021/04/20 11:59:23;;;;;;;3.13;2.60;;;15.60;99.90;;;;;;5121364;27;20453;-71
2021/04/20 12:01:49;;;;;;;2.57;2.30;;;15.60;99.90;;;;;;5114093;27;20456;-70
2021/04/20 12:04:26;;;;;;;2.27;2.00;;;15.60;99.90;;;;;;5120901;27;20456;-69
2021/04/20 12:06:54;;;;;;;2.20;2.00;;;15.80;99.90;;;;;;5119135;27;20558;-66
2021/04/20 12:09:22;;;;;;;2.93;2.00;;;16.10;99.90;;;;;;5119393;27;20498;-66
2021/04/20 12:11:48;;;;;;;4.13;2.43;;;16.30;99.90;;;;;;5118076;27;20421;-66
2021/04/20 12:14:19;;;;;;;4.40;4.00;;;16.40;99.90;;;;;;5119307;27;20494;-66
2021/04/20 12:16:46;;;;;;;6.70;5.60;;;16.50;99.90;;;;;;5097577;27;20423;-67
2021/04/20 12:19:17;;;;;;;7.97;5.40;;;16.10;99.90;;;;;;5123006;27;20448;-66
2021/04/20 12:21:52;;;;;;;11.23;7.23;;;16.30;99.90;;;;;;5124397;27;20484;-66
2021/04/20 12:24:21;;;;;;;8.87;6.30;;;15.90;99.90;;;;;;5096705;28;20458;-69
2021/04/20 12:26:55;;;;;;;8.87;5.17;;;15.70;99.90;;;;;;5117576;27;20412;-66
2021/04/20 12:29:25;;;;;;;10.50;5.90;;;15.70;99.90;;;;;;5117780;27;20475;-70
2021/04/20 12:31:51;;;;;;;4.97;3.80;;;15.90;99.90;;;;;;5102749;27;20446;-69
2021/04/20 12:34:29;;;;;;;5.40;4.90;;;16.20;99.90;;;;;;5108541;27;20515;-66
2021/04/20 12:37:00;;;;;;;4.90;4.03;;;16.00;99.90;;;;;;5116758;27;20433;-65
2021/04/20 12:39:30;;;;;;;5.30;4.10;;;16.10;99.90;;;;;;5119298;27;20490;-69
2021/04/20 12:41:59;;;;;;;5.60;5.03;;;16.30;99.90;;;;;;5106091;27;20417;-65
2021/04/20 12:44:29;;;;;;;5.53;3.73;;;16.10;99.90;;;;;;5098863;27;20528;-69
2021/04/20 12:46:56;;;;;;;4.47;3.40;;;16.10;99.90;;;;;;5108672;27;20423;-66
2021/04/20 12:49:24;;;;;;;5.20;4.00;;;16.30;99.90;;;;;;5106779;27;21111;-66
2021/04/20 12:51:51;;;;;;;5.60;4.17;;;16.40;99.90;;;;;;5117883;27;20827;-65
2021/04/20 12:54:21;;;;;;;5.13;4.40;;;16.60;99.90;;;;;;5124017;27;20560;-64
2021/04/20 12:56:54;;;;;;;8.03;4.83;;;16.80;99.90;;;;;;5122548;27;20474;-65
2021/04/20 12:59:23;;;;;;;6.17;4.30;;;16.90;99.90;;;;;;5118734;27;20815;-65
2021/04/20 13:01:55;;;;;;;8.07;4.27;;;16.80;99.90;;;;;;5113502;27;20925;-65
2021/04/20 13:04:33;;;;;;;6.53;4.07;;;16.90;99.90;;;;;;5116097;27;20452;-65
2021/04/20 13:07:00;;;;;;;7.27;5.80;;;16.90;99.90;;;;;;5111360;27;20463;-68